AFR7604 LFPO-LFKC
Flight info
| Callsign | AFR7604 |
|---|---|
| Flight time | 1h 18m |
| Altitude | 37000 |
| Route | LATRA DCT LAMUT DCT UTUVA DCT TITVA DCT NOQAS DCT OTROT DCT RETNO DCT KOLON DCT NARTI UP991 NIRDO |
| Aircraft | A321/M-SDE3FGHIRWY/LB1 |
Departure
| Time | 2026-05-07 20:04 |
|---|---|
| Airport | Paris-Orly Airport (LFPO) |
Arrival
| Time | 2026-05-07 21:22 |
|---|---|
| Airport | Calvi Sainte Catherine Airport (LFKC) |
| Time | Latitude | Longitude | Altitude | Speed | Heading |
|---|---|---|---|---|---|
| 2026-05-07 19:38 | 48.72844 | 2.35647 | 291 ft | 0 kts | 65° |
| 2026-05-07 19:56 | 48.72844 | 2.35646 | 291 ft | 0 kts | 65° |
| 2026-05-07 19:56 | 48.72839 | 2.35629 | 291 ft | 2 kts | 65° |
| 2026-05-07 19:57 | 48.72832 | 2.35608 | 291 ft | 2 kts | 65° |
| 2026-05-07 19:57 | 48.72828 | 2.35587 | 291 ft | 2 kts | 101° |
| 2026-05-07 19:57 | 48.72836 | 2.35567 | 291 ft | 2 kts | 146° |
| 2026-05-07 19:57 | 48.72845 | 2.35561 | 291 ft | 0 kts | 172° |
| 2026-05-07 19:58 | 48.72846 | 2.35561 | 291 ft | 0 kts | 172° |
| 2026-05-07 20:00 | 48.72845 | 2.35561 | 291 ft | 0 kts | 171° |
| 2026-05-07 20:00 | 48.72829 | 2.35568 | 291 ft | 4 kts | 163° |
| 2026-05-07 20:00 | 48.72782 | 2.35588 | 291 ft | 9 kts | 163° |
| 2026-05-07 20:01 | 48.72701 | 2.35624 | 291 ft | 13 kts | 165° |
| 2026-05-07 20:01 | 48.72597 | 2.35668 | 291 ft | 17 kts | 163° |
| 2026-05-07 20:01 | 48.72480 | 2.35687 | 291 ft | 16 kts | 209° |
| 2026-05-07 20:01 | 48.72381 | 2.35628 | 291 ft | 16 kts | 168° |
| 2026-05-07 20:02 | 48.72272 | 2.35609 | 291 ft | 15 kts | 193° |
| 2026-05-07 20:02 | 48.72164 | 2.35627 | 291 ft | 16 kts | 165° |
| 2026-05-07 20:02 | 48.72061 | 2.35690 | 291 ft | 16 kts | 142° |
| 2026-05-07 20:02 | 48.72030 | 2.35747 | 291 ft | 0 kts | 121° |
| 2026-05-07 20:03 | 48.72029 | 2.35748 | 291 ft | 1 kts | 121° |
| 2026-05-07 20:03 | 48.72002 | 2.35817 | 291 ft | 13 kts | 119° |
| 2026-05-07 20:03 | 48.71968 | 2.35995 | 291 ft | 22 kts | 82° |
| 2026-05-07 20:04 | 48.72062 | 2.36519 | 291 ft | 87 kts | 72° |
| 2026-05-07 20:04 | 48.72287 | 2.37733 | 292 ft | 150 kts | 74° |
| 2026-05-07 20:04 | 48.72585 | 2.39330 | 774 ft | 160 kts | 74° |
| 2026-05-07 20:04 | 48.72887 | 2.40948 | 1461 ft | 163 kts | 74° |
| 2026-05-07 20:05 | 48.73188 | 2.42571 | 2151 ft | 164 kts | 74° |
| 2026-05-07 20:05 | 48.73502 | 2.44271 | 2511 ft | 175 kts | 74° |
| 2026-05-07 20:05 | 48.73838 | 2.46092 | 2853 ft | 188 kts | 74° |
| 2026-05-07 20:05 | 48.74163 | 2.48125 | 3140 ft | 207 kts | 80° |
| 2026-05-07 20:06 | 48.74326 | 2.50377 | 3505 ft | 224 kts | 88° |
| 2026-05-07 20:06 | 48.74330 | 2.52808 | 3884 ft | 241 kts | 90° |
| 2026-05-07 20:06 | 48.74282 | 2.55444 | 4307 ft | 257 kts | 95° |
| 2026-05-07 20:06 | 48.73684 | 2.57997 | 4907 ft | 265 kts | 125° |
| 2026-05-07 20:07 | 48.72298 | 2.59786 | 5654 ft | 268 kts | 154° |
| 2026-05-07 20:07 | 48.70487 | 2.60324 | 6391 ft | 271 kts | 184° |
| 2026-05-07 20:07 | 48.68662 | 2.59631 | 7166 ft | 273 kts | 197° |
| 2026-05-07 20:07 | 48.66866 | 2.58756 | 7918 ft | 276 kts | 197° |
| 2026-05-07 20:08 | 48.65040 | 2.57884 | 8672 ft | 279 kts | 197° |
| 2026-05-07 20:08 | 48.63188 | 2.57006 | 9440 ft | 281 kts | 198° |
| 2026-05-07 20:08 | 48.61333 | 2.56131 | 10186 ft | 283 kts | 198° |
| 2026-05-07 20:08 | 48.59441 | 2.55239 | 10718 ft | 294 kts | 198° |
| 2026-05-07 20:09 | 48.57447 | 2.54300 | 11047 ft | 311 kts | 198° |
| 2026-05-07 20:09 | 48.55329 | 2.53306 | 11552 ft | 321 kts | 198° |
| 2026-05-07 20:09 | 48.53198 | 2.52309 | 12241 ft | 324 kts | 198° |
| 2026-05-07 20:10 | 48.48862 | 2.50283 | 13618 ft | 329 kts | 198° |
| 2026-05-07 20:10 | 48.46684 | 2.49267 | 14276 ft | 332 kts | 198° |
| 2026-05-07 20:10 | 48.44483 | 2.48239 | 14900 ft | 335 kts | 198° |
| 2026-05-07 20:10 | 48.42264 | 2.47206 | 15508 ft | 338 kts | 198° |
| 2026-05-07 20:11 | 48.40004 | 2.46152 | 16121 ft | 341 kts | 198° |
| 2026-05-07 20:11 | 48.37742 | 2.45099 | 16705 ft | 344 kts | 198° |
| 2026-05-07 20:11 | 48.35427 | 2.44024 | 17291 ft | 347 kts | 198° |
| 2026-05-07 20:11 | 48.33146 | 2.42966 | 17850 ft | 350 kts | 198° |
| 2026-05-07 20:12 | 48.30809 | 2.41928 | 18413 ft | 352 kts | 194° |
| 2026-05-07 20:12 | 48.28367 | 2.41602 | 18871 ft | 358 kts | 179° |
| 2026-05-07 20:12 | 48.25888 | 2.42263 | 19023 ft | 362 kts | 165° |
| 2026-05-07 20:12 | 48.23517 | 2.43491 | 19032 ft | 362 kts | 162° |
| 2026-05-07 20:13 | 48.21180 | 2.44772 | 19025 ft | 361 kts | 161° |
| 2026-05-07 20:13 | 48.18807 | 2.46070 | 19024 ft | 361 kts | 162° |
| 2026-05-07 20:13 | 48.16441 | 2.47345 | 19024 ft | 361 kts | 162° |
| 2026-05-07 20:13 | 48.14088 | 2.48602 | 19023 ft | 361 kts | 162° |
| 2026-05-07 20:14 | 48.11720 | 2.49858 | 19024 ft | 361 kts | 162° |
| 2026-05-07 20:14 | 48.09343 | 2.51115 | 19186 ft | 367 kts | 162° |
| 2026-05-07 20:14 | 48.06938 | 2.52362 | 19778 ft | 368 kts | 163° |
| 2026-05-07 20:14 | 48.04500 | 2.53572 | 20390 ft | 368 kts | 163° |
| 2026-05-07 20:15 | 48.02093 | 2.54753 | 20919 ft | 370 kts | 163° |
| 2026-05-07 20:15 | 47.99641 | 2.55957 | 21435 ft | 373 kts | 163° |
| 2026-05-07 20:15 | 47.97174 | 2.57168 | 21929 ft | 376 kts | 163° |
| 2026-05-07 20:15 | 47.94662 | 2.58401 | 22415 ft | 379 kts | 163° |
| 2026-05-07 20:16 | 47.92189 | 2.59615 | 22887 ft | 381 kts | 163° |
| 2026-05-07 20:16 | 47.89634 | 2.60869 | 23371 ft | 384 kts | 163° |
| 2026-05-07 20:16 | 47.87116 | 2.62104 | 23839 ft | 386 kts | 163° |
| 2026-05-07 20:16 | 47.84536 | 2.63368 | 24295 ft | 389 kts | 163° |
| 2026-05-07 20:17 | 47.81955 | 2.64632 | 24740 ft | 392 kts | 163° |
| 2026-05-07 20:17 | 47.79376 | 2.65893 | 25172 ft | 394 kts | 164° |
| 2026-05-07 20:17 | 47.76770 | 2.67167 | 25597 ft | 396 kts | 164° |
| 2026-05-07 20:17 | 47.74124 | 2.68458 | 26015 ft | 399 kts | 164° |
| 2026-05-07 20:18 | 47.71496 | 2.69739 | 26413 ft | 401 kts | 164° |
| 2026-05-07 20:18 | 47.68839 | 2.71033 | 26804 ft | 403 kts | 164° |
| 2026-05-07 20:18 | 47.66142 | 2.72344 | 27189 ft | 406 kts | 164° |
| 2026-05-07 20:18 | 47.63473 | 2.73641 | 27559 ft | 408 kts | 164° |
| 2026-05-07 20:19 | 47.60776 | 2.74949 | 27914 ft | 411 kts | 164° |
| 2026-05-07 20:19 | 47.58050 | 2.76272 | 28265 ft | 413 kts | 164° |
| 2026-05-07 20:19 | 47.55335 | 2.77587 | 28606 ft | 415 kts | 164° |
| 2026-05-07 20:19 | 47.52569 | 2.78925 | 28941 ft | 418 kts | 164° |
| 2026-05-07 20:20 | 47.49823 | 2.80252 | 29271 ft | 420 kts | 164° |
| 2026-05-07 20:20 | 47.47038 | 2.81596 | 29589 ft | 422 kts | 164° |
| 2026-05-07 20:20 | 47.44265 | 2.82934 | 29886 ft | 424 kts | 164° |
| 2026-05-07 20:20 | 47.41461 | 2.84284 | 30179 ft | 426 kts | 164° |
| 2026-05-07 20:21 | 47.38622 | 2.85650 | 30464 ft | 429 kts | 165° |
| 2026-05-07 20:21 | 47.35772 | 2.87020 | 30753 ft | 431 kts | 165° |
| 2026-05-07 20:21 | 47.29994 | 2.89792 | 31310 ft | 432 kts | 165° |
| 2026-05-07 20:21 | 47.27143 | 2.91158 | 31643 ft | 432 kts | 165° |
| 2026-05-07 20:22 | 47.24309 | 2.92513 | 32010 ft | 431 kts | 165° |
| 2026-05-07 20:22 | 47.21444 | 2.93881 | 32380 ft | 430 kts | 165° |
| 2026-05-07 20:22 | 47.18633 | 2.95221 | 32715 ft | 429 kts | 165° |
| 2026-05-07 20:22 | 47.15803 | 2.96570 | 33037 ft | 429 kts | 165° |
| 2026-05-07 20:23 | 47.12953 | 2.97926 | 33350 ft | 428 kts | 165° |
| 2026-05-07 20:23 | 47.10130 | 2.99158 | 33664 ft | 427 kts | 168° |
| 2026-05-07 20:23 | 47.07281 | 3.00333 | 33966 ft | 426 kts | 168° |
| 2026-05-07 20:23 | 47.04416 | 3.01520 | 34286 ft | 425 kts | 168° |
| 2026-05-07 20:24 | 47.01603 | 3.02683 | 34586 ft | 424 kts | 168° |
| 2026-05-07 20:24 | 46.98752 | 3.03858 | 34841 ft | 423 kts | 168° |
| 2026-05-07 20:24 | 46.95911 | 3.05026 | 35068 ft | 423 kts | 168° |
| 2026-05-07 20:24 | 46.93088 | 3.06184 | 35270 ft | 422 kts | 168° |
| 2026-05-07 20:25 | 46.90267 | 3.07341 | 35434 ft | 423 kts | 168° |
| 2026-05-07 20:25 | 46.87416 | 3.08508 | 35599 ft | 424 kts | 168° |
| 2026-05-07 20:25 | 46.84584 | 3.09666 | 35753 ft | 425 kts | 168° |
| 2026-05-07 20:25 | 46.81761 | 3.10819 | 35894 ft | 426 kts | 168° |
| 2026-05-07 20:26 | 46.78905 | 3.11985 | 36008 ft | 427 kts | 168° |
| 2026-05-07 20:26 | 46.76041 | 3.13153 | 36124 ft | 428 kts | 168° |
| 2026-05-07 20:26 | 46.73166 | 3.14325 | 36250 ft | 429 kts | 168° |
| 2026-05-07 20:26 | 46.70325 | 3.15480 | 36390 ft | 429 kts | 168° |
| 2026-05-07 20:27 | 46.67434 | 3.16656 | 36538 ft | 430 kts | 168° |
| 2026-05-07 20:27 | 46.64554 | 3.17825 | 36681 ft | 431 kts | 168° |
| 2026-05-07 20:27 | 46.61664 | 3.18997 | 36832 ft | 432 kts | 168° |
| 2026-05-07 20:27 | 46.58769 | 3.20169 | 36969 ft | 432 kts | 168° |
| 2026-05-07 20:28 | 46.55882 | 3.21337 | 37004 ft | 435 kts | 168° |
| 2026-05-07 20:28 | 46.49996 | 3.23713 | 37008 ft | 443 kts | 167° |
| 2026-05-07 20:29 | 46.44035 | 3.26115 | 37008 ft | 449 kts | 167° |
| 2026-05-07 20:29 | 46.37964 | 3.28557 | 37007 ft | 454 kts | 167° |
| 2026-05-07 20:30 | 46.31911 | 3.30988 | 37005 ft | 456 kts | 167° |
| 2026-05-07 20:30 | 46.25794 | 3.33438 | 37010 ft | 456 kts | 167° |
| 2026-05-07 20:31 | 46.19704 | 3.35870 | 37010 ft | 455 kts | 167° |
| 2026-05-07 20:31 | 46.13576 | 3.38309 | 37007 ft | 455 kts | 167° |
| 2026-05-07 20:32 | 46.07518 | 3.40715 | 37005 ft | 455 kts | 167° |
| 2026-05-07 20:32 | 46.01433 | 3.43127 | 37009 ft | 455 kts | 167° |
| 2026-05-07 20:33 | 45.95342 | 3.45537 | 37006 ft | 455 kts | 167° |
| 2026-05-07 20:33 | 45.89321 | 3.48411 | 37001 ft | 457 kts | 161° |
| 2026-05-07 20:34 | 45.83484 | 3.52238 | 37003 ft | 464 kts | 155° |
| 2026-05-07 20:34 | 45.77931 | 3.56989 | 37012 ft | 470 kts | 149° |
| 2026-05-07 20:35 | 45.72444 | 3.62165 | 37032 ft | 473 kts | 150° |
| 2026-05-07 20:35 | 45.69736 | 3.64715 | 37154 ft | 471 kts | 150° |
| 2026-05-07 20:35 | 45.66992 | 3.67298 | 37331 ft | 468 kts | 150° |
| 2026-05-07 20:35 | 45.64274 | 3.69857 | 37491 ft | 465 kts | 150° |
| 2026-05-07 20:36 | 45.61599 | 3.72374 | 37633 ft | 463 kts | 150° |
| 2026-05-07 20:36 | 45.58907 | 3.74905 | 37775 ft | 461 kts | 150° |
| 2026-05-07 20:36 | 45.56234 | 3.77410 | 37830 ft | 462 kts | 150° |
| 2026-05-07 20:36 | 45.53523 | 3.79919 | 37654 ft | 465 kts | 151° |
| 2026-05-07 20:37 | 45.50806 | 3.82429 | 37605 ft | 464 kts | 151° |
| 2026-05-07 20:37 | 45.45430 | 3.87414 | 37478 ft | 464 kts | 150° |
| 2026-05-07 20:38 | 45.40188 | 3.92806 | 37374 ft | 466 kts | 144° |
| 2026-05-07 20:38 | 45.35390 | 3.99040 | 37294 ft | 470 kts | 138° |
| 2026-05-07 20:39 | 45.31103 | 4.06080 | 37227 ft | 474 kts | 131° |
| 2026-05-07 20:39 | 45.27228 | 4.13637 | 37209 ft | 475 kts | 129° |
| 2026-05-07 20:40 | 45.23382 | 4.21190 | 37245 ft | 475 kts | 129° |
| 2026-05-07 20:40 | 45.19508 | 4.28754 | 37324 ft | 476 kts | 130° |
| 2026-05-07 20:41 | 45.15604 | 4.36327 | 37453 ft | 476 kts | 130° |
| 2026-05-07 20:41 | 45.11686 | 4.43845 | 37587 ft | 475 kts | 131° |
| 2026-05-07 20:42 | 45.07457 | 4.50957 | 37475 ft | 467 kts | 135° |
| 2026-05-07 20:42 | 45.05357 | 4.54398 | 37230 ft | 456 kts | 135° |
| 2026-05-07 20:42 | 45.03302 | 4.57760 | 37045 ft | 450 kts | 135° |
| 2026-05-07 20:43 | 44.99215 | 4.64402 | 37035 ft | 456 kts | 135° |
| 2026-05-07 20:43 | 44.94990 | 4.71258 | 37030 ft | 464 kts | 136° |
| 2026-05-07 20:44 | 44.90719 | 4.78179 | 37020 ft | 470 kts | 136° |
| 2026-05-07 20:44 | 44.86397 | 4.85172 | 37008 ft | 473 kts | 136° |
| 2026-05-07 20:45 | 44.82074 | 4.92153 | 37013 ft | 474 kts | 136° |
| 2026-05-07 20:45 | 44.77723 | 4.99162 | 37015 ft | 474 kts | 136° |
| 2026-05-07 20:46 | 44.73405 | 5.06096 | 37011 ft | 473 kts | 136° |
| 2026-05-07 20:46 | 44.69048 | 5.13077 | 37007 ft | 473 kts | 136° |
| 2026-05-07 20:47 | 44.64732 | 5.19974 | 37017 ft | 473 kts | 136° |
| 2026-05-07 20:47 | 44.60379 | 5.26915 | 37030 ft | 473 kts | 136° |
| 2026-05-07 20:48 | 44.56038 | 5.33812 | 37039 ft | 475 kts | 136° |
| 2026-05-07 20:48 | 44.51644 | 5.40777 | 37043 ft | 475 kts | 136° |
| 2026-05-07 20:49 | 44.47277 | 5.47687 | 37049 ft | 474 kts | 136° |
| 2026-05-07 20:49 | 44.42915 | 5.54570 | 37051 ft | 474 kts | 136° |
| 2026-05-07 20:50 | 44.38599 | 5.61533 | 37053 ft | 475 kts | 134° |
| 2026-05-07 20:50 | 44.34714 | 5.69059 | 37048 ft | 479 kts | 129° |
| 2026-05-07 20:51 | 44.31008 | 5.76714 | 37053 ft | 476 kts | 129° |
| 2026-05-07 20:51 | 44.27316 | 5.84321 | 37045 ft | 476 kts | 130° |
| 2026-05-07 20:52 | 44.23567 | 5.92005 | 37045 ft | 477 kts | 130° |
| 2026-05-07 20:52 | 44.19841 | 5.99621 | 37054 ft | 477 kts | 130° |
| 2026-05-07 20:53 | 44.16108 | 6.07236 | 37053 ft | 476 kts | 130° |
| 2026-05-07 20:53 | 44.12355 | 6.14867 | 37043 ft | 475 kts | 130° |
| 2026-05-07 20:54 | 44.08639 | 6.22404 | 37040 ft | 475 kts | 130° |
| 2026-05-07 20:54 | 44.04866 | 6.30036 | 37042 ft | 475 kts | 130° |
| 2026-05-07 20:55 | 43.97849 | 6.44183 | 37050 ft | 475 kts | 130° |
| 2026-05-07 20:55 | 43.84612 | 6.70675 | 37029 ft | 469 kts | 131° |
| 2026-05-07 20:55 | 43.82790 | 6.74313 | 37026 ft | 455 kts | 131° |
| 2026-05-07 20:56 | 43.81001 | 6.77874 | 37029 ft | 452 kts | 131° |
| 2026-05-07 20:56 | 43.77420 | 6.84971 | 37030 ft | 450 kts | 131° |
| 2026-05-07 20:56 | 43.75621 | 6.88536 | 36833 ft | 446 kts | 131° |
| 2026-05-07 20:57 | 43.73856 | 6.92030 | 36324 ft | 444 kts | 131° |
| 2026-05-07 20:57 | 43.72048 | 6.95435 | 35842 ft | 440 kts | 135° |
| 2026-05-07 20:57 | 43.70114 | 6.98681 | 35408 ft | 434 kts | 138° |
| 2026-05-07 20:57 | 43.68169 | 7.01810 | 34930 ft | 433 kts | 139° |
| 2026-05-07 20:58 | 43.66206 | 7.04949 | 34345 ft | 432 kts | 138° |
| 2026-05-07 20:58 | 43.64245 | 7.08077 | 33629 ft | 433 kts | 138° |
| 2026-05-07 20:58 | 43.62297 | 7.11182 | 32835 ft | 435 kts | 138° |
| 2026-05-07 20:58 | 43.60322 | 7.14332 | 31981 ft | 439 kts | 137° |
| 2026-05-07 20:59 | 43.58314 | 7.17534 | 31058 ft | 443 kts | 137° |
| 2026-05-07 20:59 | 43.56344 | 7.20844 | 30186 ft | 449 kts | 132° |
| 2026-05-07 20:59 | 43.54619 | 7.24405 | 29627 ft | 449 kts | 126° |
| 2026-05-07 20:59 | 43.53159 | 7.28209 | 29120 ft | 448 kts | 120° |
| 2026-05-07 21:00 | 43.51874 | 7.32057 | 28589 ft | 444 kts | 118° |
| 2026-05-07 21:00 | 43.50619 | 7.35920 | 28046 ft | 440 kts | 118° |
| 2026-05-07 21:00 | 43.49386 | 7.39713 | 27490 ft | 436 kts | 118° |
| 2026-05-07 21:00 | 43.48145 | 7.43515 | 26928 ft | 432 kts | 118° |
| 2026-05-07 21:01 | 43.46933 | 7.47213 | 26397 ft | 428 kts | 117° |
| 2026-05-07 21:01 | 43.45710 | 7.50920 | 25855 ft | 424 kts | 117° |
| 2026-05-07 21:01 | 43.44489 | 7.54613 | 25320 ft | 420 kts | 117° |
| 2026-05-07 21:01 | 43.43301 | 7.58200 | 24803 ft | 416 kts | 117° |
| 2026-05-07 21:02 | 43.42104 | 7.61806 | 24272 ft | 412 kts | 116° |
| 2026-05-07 21:02 | 43.40918 | 7.65373 | 23755 ft | 408 kts | 117° |
| 2026-05-07 21:02 | 43.39749 | 7.68891 | 23240 ft | 404 kts | 117° |
| 2026-05-07 21:02 | 43.38589 | 7.72373 | 22742 ft | 400 kts | 117° |
| 2026-05-07 21:03 | 43.37436 | 7.75834 | 22235 ft | 397 kts | 117° |
| 2026-05-07 21:03 | 43.36305 | 7.79218 | 21736 ft | 394 kts | 117° |
| 2026-05-07 21:03 | 43.35156 | 7.82649 | 21241 ft | 390 kts | 117° |
| 2026-05-07 21:03 | 43.34036 | 7.85992 | 20763 ft | 386 kts | 117° |
| 2026-05-07 21:04 | 43.32916 | 7.89331 | 20281 ft | 383 kts | 117° |
| 2026-05-07 21:04 | 43.31815 | 7.92605 | 19803 ft | 380 kts | 117° |
| 2026-05-07 21:04 | 43.30714 | 7.95878 | 19324 ft | 376 kts | 117° |
| 2026-05-07 21:04 | 43.29629 | 7.99103 | 18859 ft | 373 kts | 117° |
| 2026-05-07 21:05 | 43.28550 | 8.02300 | 18395 ft | 370 kts | 116° |
| 2026-05-07 21:05 | 43.27472 | 8.05493 | 17932 ft | 367 kts | 116° |
| 2026-05-07 21:05 | 43.26400 | 8.08663 | 17471 ft | 364 kts | 116° |
| 2026-05-07 21:05 | 43.25345 | 8.11781 | 17022 ft | 361 kts | 116° |
| 2026-05-07 21:06 | 43.24293 | 8.14886 | 16567 ft | 358 kts | 116° |
| 2026-05-07 21:06 | 43.23251 | 8.17955 | 16125 ft | 355 kts | 116° |
| 2026-05-07 21:06 | 43.22225 | 8.20975 | 15694 ft | 352 kts | 116° |
| 2026-05-07 21:06 | 43.21195 | 8.24005 | 15260 ft | 348 kts | 116° |
| 2026-05-07 21:07 | 43.20179 | 8.26990 | 14838 ft | 345 kts | 116° |
| 2026-05-07 21:07 | 43.19161 | 8.29980 | 14404 ft | 342 kts | 116° |
| 2026-05-07 21:07 | 43.18172 | 8.32880 | 13977 ft | 339 kts | 115° |
| 2026-05-07 21:07 | 43.17177 | 8.35793 | 13537 ft | 337 kts | 115° |
| 2026-05-07 21:08 | 43.16190 | 8.38681 | 13088 ft | 334 kts | 115° |
| 2026-05-07 21:08 | 43.15192 | 8.41526 | 12630 ft | 332 kts | 118° |
| 2026-05-07 21:08 | 43.14052 | 8.44251 | 12161 ft | 329 kts | 122° |
| 2026-05-07 21:08 | 43.12763 | 8.46818 | 11695 ft | 327 kts | 126° |
| 2026-05-07 21:09 | 43.11434 | 8.49300 | 11239 ft | 324 kts | 127° |
| 2026-05-07 21:09 | 43.10100 | 8.51770 | 10771 ft | 322 kts | 127° |
| 2026-05-07 21:09 | 43.08777 | 8.54221 | 10389 ft | 316 kts | 127° |
| 2026-05-07 21:09 | 43.07501 | 8.56585 | 10194 ft | 306 kts | 127° |
| 2026-05-07 21:10 | 43.06257 | 8.58892 | 10001 ft | 295 kts | 127° |
| 2026-05-07 21:10 | 43.05055 | 8.61117 | 9792 ft | 286 kts | 127° |
| 2026-05-07 21:10 | 43.03876 | 8.63298 | 9438 ft | 283 kts | 127° |
| 2026-05-07 21:10 | 43.02707 | 8.65458 | 9046 ft | 282 kts | 127° |
| 2026-05-07 21:11 | 43.01543 | 8.67609 | 8653 ft | 281 kts | 127° |
| 2026-05-07 21:11 | 43.00391 | 8.69737 | 8280 ft | 279 kts | 127° |
| 2026-05-07 21:11 | 42.98106 | 8.73958 | 7530 ft | 275 kts | 127° |
| 2026-05-07 21:12 | 42.96977 | 8.76039 | 7154 ft | 274 kts | 127° |
| 2026-05-07 21:12 | 42.95784 | 8.78047 | 6763 ft | 272 kts | 139° |
| 2026-05-07 21:12 | 42.94119 | 8.79168 | 6329 ft | 270 kts | 171° |
| 2026-05-07 21:12 | 42.92240 | 8.79245 | 5970 ft | 268 kts | 181° |
| 2026-05-07 21:13 | 42.90383 | 8.79211 | 5575 ft | 267 kts | 180° |
| 2026-05-07 21:13 | 42.88508 | 8.79200 | 5189 ft | 267 kts | 180° |
| 2026-05-07 21:13 | 42.86639 | 8.79194 | 4799 ft | 267 kts | 179° |
| 2026-05-07 21:13 | 42.84795 | 8.79189 | 4542 ft | 261 kts | 179° |
| 2026-05-07 21:14 | 42.83033 | 8.79186 | 4372 ft | 252 kts | 179° |
| 2026-05-07 21:14 | 42.81308 | 8.79183 | 4204 ft | 244 kts | 179° |
| 2026-05-07 21:14 | 42.79634 | 8.79182 | 4040 ft | 236 kts | 179° |
| 2026-05-07 21:14 | 42.78030 | 8.79180 | 3968 ft | 222 kts | 179° |
| 2026-05-07 21:15 | 42.76521 | 8.79181 | 3818 ft | 209 kts | 178° |
| 2026-05-07 21:15 | 42.75105 | 8.79186 | 3620 ft | 199 kts | 178° |
| 2026-05-07 21:15 | 42.73758 | 8.79191 | 3388 ft | 192 kts | 178° |
| 2026-05-07 21:15 | 42.72420 | 8.79198 | 3076 ft | 189 kts | 178° |
| 2026-05-07 21:16 | 42.71123 | 8.79204 | 3038 ft | 189 kts | 177° |
| 2026-05-07 21:16 | 42.69789 | 8.79213 | 2995 ft | 191 kts | 178° |
| 2026-05-07 21:16 | 42.68469 | 8.79221 | 2807 ft | 190 kts | 178° |
| 2026-05-07 21:16 | 42.67142 | 8.79227 | 2575 ft | 190 kts | 178° |
| 2026-05-07 21:17 | 42.65824 | 8.79233 | 2334 ft | 189 kts | 178° |
| 2026-05-07 21:17 | 42.64545 | 8.79238 | 2073 ft | 175 kts | 178° |
| 2026-05-07 21:17 | 42.63380 | 8.79239 | 1832 ft | 158 kts | 178° |
| 2026-05-07 21:17 | 42.62322 | 8.79216 | 1583 ft | 147 kts | 183° |
| 2026-05-07 21:18 | 42.61322 | 8.79046 | 1355 ft | 144 kts | 183° |
| 2026-05-07 21:18 | 42.60328 | 8.78905 | 1263 ft | 143 kts | 185° |
| 2026-05-07 21:18 | 42.59341 | 8.78730 | 1229 ft | 143 kts | 186° |
| 2026-05-07 21:18 | 42.58350 | 8.78518 | 1217 ft | 142 kts | 188° |
| 2026-05-07 21:19 | 42.57375 | 8.78326 | 1208 ft | 142 kts | 185° |
| 2026-05-07 21:19 | 42.56389 | 8.78207 | 1196 ft | 141 kts | 182° |
| 2026-05-07 21:19 | 42.55403 | 8.78105 | 1185 ft | 142 kts | 185° |
| 2026-05-07 21:19 | 42.54421 | 8.77934 | 1177 ft | 141 kts | 186° |
| 2026-05-07 21:20 | 42.53453 | 8.77679 | 1175 ft | 142 kts | 195° |
| 2026-05-07 21:20 | 42.52504 | 8.77318 | 1095 ft | 142 kts | 191° |
| 2026-05-07 21:20 | 42.51541 | 8.77061 | 958 ft | 141 kts | 191° |
| 2026-05-07 21:20 | 42.50573 | 8.76817 | 971 ft | 139 kts | 179° |
| 2026-05-07 21:21 | 42.49676 | 8.77201 | 1098 ft | 139 kts | 135° |
| 2026-05-07 21:21 | 42.49461 | 8.78394 | 969 ft | 139 kts | 70° |
| 2026-05-07 21:21 | 42.50173 | 8.79251 | 772 ft | 144 kts | 12° |
| 2026-05-07 21:21 | 42.51165 | 8.79293 | 487 ft | 146 kts | 0° |
| 2026-05-07 21:22 | 42.52177 | 8.79309 | 233 ft | 145 kts | 0° |
| 2026-05-07 21:22 | 42.53062 | 8.79296 | 148 ft | 92 kts | 0° |
| 2026-05-07 21:22 | 42.53491 | 8.79297 | 121 ft | 51 kts | 0° |
| 2026-05-07 21:22 | 42.53853 | 8.79297 | 102 ft | 45 kts | 359° |
| 2026-05-07 21:23 | 42.54058 | 8.79339 | 93 ft | 17 kts | 30° |
| 2026-05-07 21:23 | 42.54082 | 8.79301 | 93 ft | 9 kts | 199° |
| 2026-05-07 21:23 | 42.54019 | 8.79293 | 94 ft | 9 kts | 181° |
| 2026-05-07 21:23 | 42.53949 | 8.79291 | 98 ft | 10 kts | 181° |
| 2026-05-07 21:24 | 42.53812 | 8.79293 | 104 ft | 38 kts | 180° |
| 2026-05-07 21:24 | 42.53523 | 8.79293 | 119 ft | 39 kts | 180° |
| 2026-05-07 21:24 | 42.53277 | 8.79297 | 134 ft | 32 kts | 179° |
| 2026-05-07 21:24 | 42.53077 | 8.79297 | 147 ft | 25 kts | 181° |
| 2026-05-07 21:25 | 42.52922 | 8.79299 | 158 ft | 19 kts | 180° |
| 2026-05-07 21:25 | 42.52764 | 8.79300 | 167 ft | 24 kts | 181° |
| 2026-05-07 21:25 | 42.52617 | 8.79297 | 176 ft | 18 kts | 181° |
| 2026-05-07 21:25 | 42.52501 | 8.79296 | 182 ft | 14 kts | 179° |
| 2026-05-07 21:26 | 42.52434 | 8.79241 | 185 ft | 12 kts | 264° |
| 2026-05-07 21:26 | 42.52460 | 8.79164 | 184 ft | 7 kts | 351° |
| 2026-05-07 21:26 | 42.52504 | 8.79112 | 181 ft | 8 kts | 300° |
| 2026-05-07 21:26 | 42.52508 | 8.79102 | 181 ft | 0 kts | 300° |
| 2026-05-07 21:27 | 42.52511 | 8.79097 | 181 ft | 0 kts | 301° |